Terminal Aerodrome Forecast
Issued by NWS Grand Forks, ND

Home | Current Version | Previous Version | Text Only | Print | Product List | Glossary On
Versions: 1 2 3 4 5 6 7 8 9 10 11 12 13 14 15 16 17 18
584
FTUS43 KFGF 070251 AAA
TAFGFK
TAF AMD
KGFK 070251Z 0703/0724 25013G20KT P6SM BKN080
     FM070500 26018G27KT P6SM BKN025 OVC050
     FM070700 28022G29KT 2SM -SN OVC012
     FM071700 30030G40KT 1/4SM SN BLSN BKN008 OVC010=

USA.gov is the U.S. government's official web portal to all federal, state and local government web resources and services.